sensor_id;sensor_type;location;lat;lon;timestamp;temperature;humidity
12049;DHT22;6085;49.452;8.502;2023-01-29T00:00:40;-0.80;99.90
12049;DHT22;6085;49.452;8.502;2023-01-29T00:04:44;-0.80;99.90
12049;DHT22;6085;49.452;8.502;2023-01-29T00:08:46;-0.80;99.90
12049;DHT22;6085;49.452;8.502;2023-01-29T00:12:48;-0.70;99.90
12049;DHT22;6085;49.452;8.502;2023-01-29T00:16:51;-0.70;99.90
12049;DHT22;6085;49.452;8.502;2023-01-29T00:20:54;-0.70;99.90
12049;DHT22;6085;49.452;8.502;2023-01-29T00:24:56;-0.70;99.90
12049;DHT22;6085;49.452;8.502;2023-01-29T00:28:58;-0.70;99.90
12049;DHT22;6085;49.452;8.502;2023-01-29T00:33:01;-0.90;99.90
12049;DHT22;6085;49.452;8.502;2023-01-29T00:37:04;-1.00;99.90
12049;DHT22;6085;49.452;8.502;2023-01-29T00:41:10;-1.00;99.90
12049;DHT22;6085;49.452;8.502;2023-01-29T00:45:30;-1.10;99.90
12049;DHT22;6085;49.452;8.502;2023-01-29T00:49:32;-1.20;99.90
12049;DHT22;6085;49.452;8.502;2023-01-29T00:53:35;-1.20;99.90
12049;DHT22;6085;49.452;8.502;2023-01-29T00:57:37;-1.30;99.90
12049;DHT22;6085;49.452;8.502;2023-01-29T01:01:39;-1.30;99.90
12049;DHT22;6085;49.452;8.502;2023-01-29T01:06:03;-1.30;99.90
12049;DHT22;6085;49.452;8.502;2023-01-29T01:10:09;-1.20;99.90
12049;DHT22;6085;49.452;8.502;2023-01-29T01:14:24;-1.10;99.90
12049;DHT22;6085;49.452;8.502;2023-01-29T01:18:28;-1.00;99.90
12049;DHT22;6085;49.452;8.502;2023-01-29T01:22:30;-0.90;99.90
12049;DHT22;6085;49.452;8.502;2023-01-29T01:26:33;-0.80;99.90
12049;DHT22;6085;49.452;8.502;2023-01-29T01:30:35;-0.60;99.90
12049;DHT22;6085;49.452;8.502;2023-01-29T01:34:37;-0.50;99.90
12049;DHT22;6085;49.452;8.502;2023-01-29T01:38:39;-0.40;99.90
12049;DHT22;6085;49.452;8.502;2023-01-29T01:42:46;-0.40;99.90
12049;DHT22;6085;49.452;8.502;2023-01-29T01:46:49;-0.50;99.90
12049;DHT22;6085;49.452;8.502;2023-01-29T01:50:55;-0.50;99.90
12049;DHT22;6085;49.452;8.502;2023-01-29T01:55:00;-0.50;99.90
12049;DHT22;6085;49.452;8.502;2023-01-29T01:59:06;-0.40;99.90
12049;DHT22;6085;49.452;8.502;2023-01-29T02:03:10;-0.30;99.90
12049;DHT22;6085;49.452;8.502;2023-01-29T02:07:30;-0.30;99.90
12049;DHT22;6085;49.452;8.502;2023-01-29T02:11:50;-0.40;99.90
12049;DHT22;6085;49.452;8.502;2023-01-29T02:15:53;-0.40;99.90
12049;DHT22;6085;49.452;8.502;2023-01-29T02:20:01;-0.40;99.90
12049;DHT22;6085;49.452;8.502;2023-01-29T02:24:41;-0.50;99.90
12049;DHT22;6085;49.452;8.502;2023-01-29T02:28:54;-0.60;99.90
12049;DHT22;6085;49.452;8.502;2023-01-29T02:33:25;-0.60;99.90
12049;DHT22;6085;49.452;8.502;2023-01-29T02:37:35;-0.80;99.90
12049;DHT22;6085;49.452;8.502;2023-01-29T02:41:43;-0.90;99.90
12049;DHT22;6085;49.452;8.502;2023-01-29T02:45:51;-1.00;99.90
12049;DHT22;6085;49.452;8.502;2023-01-29T02:49:59;-1.20;99.90
12049;DHT22;6085;49.452;8.502;2023-01-29T02:54:06;-1.30;99.90
12049;DHT22;6085;49.452;8.502;2023-01-29T02:58:12;-1.50;99.90
12049;DHT22;6085;49.452;8.502;2023-01-29T03:02:20;-1.70;99.90
12049;DHT22;6085;49.452;8.502;2023-01-29T03:06:30;-1.90;99.90
12049;DHT22;6085;49.452;8.502;2023-01-29T03:10:38;-2.20;99.90
12049;DHT22;6085;49.452;8.502;2023-01-29T03:14:41;-2.40;99.90
12049;DHT22;6085;49.452;8.502;2023-01-29T03:19:01;-2.40;99.90
12049;DHT22;6085;49.452;8.502;2023-01-29T03:23:10;-2.60;99.90
12049;DHT22;6085;49.452;8.502;2023-01-29T03:27:18;-2.70;99.90
12049;DHT22;6085;49.452;8.502;2023-01-29T03:31:38;-2.90;99.90
12049;DHT22;6085;49.452;8.502;2023-01-29T03:36:03;-3.10;99.90
12049;DHT22;6085;49.452;8.502;2023-01-29T03:40:08;-3.30;99.90
12049;DHT22;6085;49.452;8.502;2023-01-29T03:44:14;-3.40;99.90
12049;DHT22;6085;49.452;8.502;2023-01-29T03:48:25;-3.40;99.90
12049;DHT22;6085;49.452;8.502;2023-01-29T03:52:36;-3.30;99.90
12049;DHT22;6085;49.452;8.502;2023-01-29T03:56:48;-3.40;99.90
12049;DHT22;6085;49.452;8.502;2023-01-29T04:00:57;-3.40;99.90
12049;DHT22;6085;49.452;8.502;2023-01-29T04:05:04;-3.40;99.90
12049;DHT22;6085;49.452;8.502;2023-01-29T04:09:13;-3.50;99.90
12049;DHT22;6085;49.452;8.502;2023-01-29T04:13:17;-3.50;99.90
12049;DHT22;6085;49.452;8.502;2023-01-29T04:17:23;-3.40;99.90
12049;DHT22;6085;49.452;8.502;2023-01-29T04:21:26;-3.30;99.90
12049;DHT22;6085;49.452;8.502;2023-01-29T04:25:45;-3.20;99.90
12049;DHT22;6085;49.452;8.502;2023-01-29T04:29:56;-3.00;99.90
12049;DHT22;6085;49.452;8.502;2023-01-29T04:34:09;-2.70;99.90
12049;DHT22;6085;49.452;8.502;2023-01-29T04:38:21;-2.50;99.90
12049;DHT22;6085;49.452;8.502;2023-01-29T04:42:31;-2.50;99.90
12049;DHT22;6085;49.452;8.502;2023-01-29T04:46:45;-2.60;99.90
12049;DHT22;6085;49.452;8.502;2023-01-29T04:50:55;-2.70;99.90
12049;DHT22;6085;49.452;8.502;2023-01-29T04:55:03;-2.70;99.90
12049;DHT22;6085;49.452;8.502;2023-01-29T04:59:11;-2.80;99.90
12049;DHT22;6085;49.452;8.502;2023-01-29T05:03:15;-2.90;99.90
12049;DHT22;6085;49.452;8.502;2023-01-29T05:07:18;-3.00;99.90
12049;DHT22;6085;49.452;8.502;2023-01-29T05:11:22;-3.20;99.90
12049;DHT22;6085;49.452;8.502;2023-01-29T05:15:32;-3.40;99.90
12049;DHT22;6085;49.452;8.502;2023-01-29T05:19:35;-3.50;99.90
12049;DHT22;6085;49.452;8.502;2023-01-29T05:23:37;-3.70;99.90
12049;DHT22;6085;49.452;8.502;2023-01-29T05:27:39;-3.80;99.90
12049;DHT22;6085;49.452;8.502;2023-01-29T05:32:00;-3.90;99.90
12049;DHT22;6085;49.452;8.502;2023-01-29T05:36:03;-4.00;99.90
12049;DHT22;6085;49.452;8.502;2023-01-29T05:40:06;-4.00;99.90
12049;DHT22;6085;49.452;8.502;2023-01-29T05:44:09;-3.90;99.90
12049;DHT22;6085;49.452;8.502;2023-01-29T05:48:15;-3.80;99.90
12049;DHT22;6085;49.452;8.502;2023-01-29T05:52:17;-3.70;99.90
12049;DHT22;6085;49.452;8.502;2023-01-29T05:56:19;-3.60;99.90
12049;DHT22;6085;49.452;8.502;2023-01-29T06:00:21;-3.40;99.90
12049;DHT22;6085;49.452;8.502;2023-01-29T06:04:24;-3.30;99.90
12049;DHT22;6085;49.452;8.502;2023-01-29T06:08:26;-3.20;99.90
12049;DHT22;6085;49.452;8.502;2023-01-29T06:12:28;-3.10;99.90
12049;DHT22;6085;49.452;8.502;2023-01-29T06:16:32;-3.00;99.90
12049;DHT22;6085;49.452;8.502;2023-01-29T06:20:35;-3.00;99.90
12049;DHT22;6085;49.452;8.502;2023-01-29T06:24:37;-3.00;99.90
12049;DHT22;6085;49.452;8.502;2023-01-29T06:28:39;-3.00;99.90
12049;DHT22;6085;49.452;8.502;2023-01-29T06:32:41;-2.90;99.90
12049;DHT22;6085;49.452;8.502;2023-01-29T06:36:44;-2.70;99.90
12049;DHT22;6085;49.452;8.502;2023-01-29T06:40:46;-2.50;99.90
12049;DHT22;6085;49.452;8.502;2023-01-29T06:44:48;-2.50;99.90
12049;DHT22;6085;49.452;8.502;2023-01-29T06:48:50;-2.40;99.90
12049;DHT22;6085;49.452;8.502;2023-01-29T06:52:53;-2.40;99.90
12049;DHT22;6085;49.452;8.502;2023-01-29T06:56:55;-2.50;99.90
12049;DHT22;6085;49.452;8.502;2023-01-29T07:01:02;-2.70;99.90
12049;DHT22;6085;49.452;8.502;2023-01-29T07:05:04;-2.70;99.90
12049;DHT22;6085;49.452;8.502;2023-01-29T07:09:10;-2.70;99.90
12049;DHT22;6085;49.452;8.502;2023-01-29T07:13:12;-2.70;99.90
12049;DHT22;6085;49.452;8.502;2023-01-29T07:17:14;-2.70;99.90
12049;DHT22;6085;49.452;8.502;2023-01-29T07:21:16;-2.70;99.90
12049;DHT22;6085;49.452;8.502;2023-01-29T07:25:19;-2.60;99.90
12049;DHT22;6085;49.452;8.502;2023-01-29T07:29:21;-2.60;99.90
12049;DHT22;6085;49.452;8.502;2023-01-29T07:33:24;-2.50;99.90
12049;DHT22;6085;49.452;8.502;2023-01-29T07:37:26;-2.40;99.90
12049;DHT22;6085;49.452;8.502;2023-01-29T07:41:29;-2.20;99.90
12049;DHT22;6085;49.452;8.502;2023-01-29T07:45:33;-2.10;99.90
12049;DHT22;6085;49.452;8.502;2023-01-29T07:49:35;-2.00;99.90
12049;DHT22;6085;49.452;8.502;2023-01-29T07:53:37;-2.00;99.90
12049;DHT22;6085;49.452;8.502;2023-01-29T07:57:40;-2.00;99.90
12049;DHT22;6085;49.452;8.502;2023-01-29T08:01:42;-1.90;99.90
12049;DHT22;6085;49.452;8.502;2023-01-29T08:05:44;-1.80;99.90
12049;DHT22;6085;49.452;8.502;2023-01-29T08:09:46;-1.60;99.90
12049;DHT22;6085;49.452;8.502;2023-01-29T08:13:49;-1.30;99.90
12049;DHT22;6085;49.452;8.502;2023-01-29T08:17:51;-0.90;99.90
12049;DHT22;6085;49.452;8.502;2023-01-29T08:21:53;-0.50;99.90
12049;DHT22;6085;49.452;8.502;2023-01-29T08:25:55;-0.20;99.90
12049;DHT22;6085;49.452;8.502;2023-01-29T08:29:58;0.10;99.90
12049;DHT22;6085;49.452;8.502;2023-01-29T08:34:00;0.20;99.90
12049;DHT22;6085;49.452;8.502;2023-01-29T08:38:03;0.60;99.90
12049;DHT22;6085;49.452;8.502;2023-01-29T08:42:05;1.00;99.90
12049;DHT22;6085;49.452;8.502;2023-01-29T08:46:08;1.70;99.90
12049;DHT22;6085;49.452;8.502;2023-01-29T08:50:10;2.40;99.90
12049;DHT22;6085;49.452;8.502;2023-01-29T08:54:12;3.60;99.90
12049;DHT22;6085;49.452;8.502;2023-01-29T08:58:14;4.60;99.90
12049;DHT22;6085;49.452;8.502;2023-01-29T09:02:17;6.30;99.90
12049;DHT22;6085;49.452;8.502;2023-01-29T09:06:19;6.50;99.90
12049;DHT22;6085;49.452;8.502;2023-01-29T09:10:21;6.30;99.90
12049;DHT22;6085;49.452;8.502;2023-01-29T09:14:23;9.60;99.90
12049;DHT22;6085;49.452;8.502;2023-01-29T09:18:27;12.60;95.80
12049;DHT22;6085;49.452;8.502;2023-01-29T09:22:29;11.90;91.60
12049;DHT22;6085;49.452;8.502;2023-01-29T09:26:30;11.60;91.40
12049;DHT22;6085;49.452;8.502;2023-01-29T09:30:32;12.70;90.10
12049;DHT22;6085;49.452;8.502;2023-01-29T09:34:38;15.00;82.60
12049;DHT22;6085;49.452;8.502;2023-01-29T09:38:40;15.00;71.20
12049;DHT22;6085;49.452;8.502;2023-01-29T09:42:45;12.10;74.70
12049;DHT22;6085;49.452;8.502;2023-01-29T09:46:50;11.00;79.00
12049;DHT22;6085;49.452;8.502;2023-01-29T09:50:56;9.90;84.30
12049;DHT22;6085;49.452;8.502;2023-01-29T09:55:04;8.80;85.50
12049;DHT22;6085;49.452;8.502;2023-01-29T09:59:09;6.70;91.50
12049;DHT22;6085;49.452;8.502;2023-01-29T10:03:26;5.20;96.10
12049;DHT22;6085;49.452;8.502;2023-01-29T10:07:59;3.80;99.90
12049;DHT22;6085;49.452;8.502;2023-01-29T10:12:13;3.20;99.90
12049;DHT22;6085;49.452;8.502;2023-01-29T10:16:30;3.00;99.90
12049;DHT22;6085;49.452;8.502;2023-01-29T10:20:57;3.10;99.90
12049;DHT22;6085;49.452;8.502;2023-01-29T10:25:05;3.00;99.90
12049;DHT22;6085;49.452;8.502;2023-01-29T10:29:14;3.00;99.90
12049;DHT22;6085;49.452;8.502;2023-01-29T10:33:23;3.10;99.90
12049;DHT22;6085;49.452;8.502;2023-01-29T10:37:33;3.20;99.90
12049;DHT22;6085;49.452;8.502;2023-01-29T10:41:53;3.40;99.90
12049;DHT22;6085;49.452;8.502;2023-01-29T10:46:04;3.10;99.90
12049;DHT22;6085;49.452;8.502;2023-01-29T10:50:16;2.90;99.90
12049;DHT22;6085;49.452;8.502;2023-01-29T10:54:36;3.00;99.90
12049;DHT22;6085;49.452;8.502;2023-01-29T10:58:47;3.20;99.90
12049;DHT22;6085;49.452;8.502;2023-01-29T11:02:51;3.10;99.90
12049;DHT22;6085;49.452;8.502;2023-01-29T11:06:53;3.10;99.90
12049;DHT22;6085;49.452;8.502;2023-01-29T11:11:02;3.10;99.90
12049;DHT22;6085;49.452;8.502;2023-01-29T11:15:16;3.30;99.90
12049;DHT22;6085;49.452;8.502;2023-01-29T11:19:35;3.40;99.90
12049;DHT22;6085;49.452;8.502;2023-01-29T11:23:37;3.60;99.90
12049;DHT22;6085;49.452;8.502;2023-01-29T11:27:43;3.60;99.90
12049;DHT22;6085;49.452;8.502;2023-01-29T11:31:47;3.60;99.90
12049;DHT22;6085;49.452;8.502;2023-01-29T11:35:49;3.70;99.90
12049;DHT22;6085;49.452;8.502;2023-01-29T11:39:52;3.70;99.90
12049;DHT22;6085;49.452;8.502;2023-01-29T11:43:53;3.40;99.90
12049;DHT22;6085;49.452;8.502;2023-01-29T11:48:00;3.30;99.90
12049;DHT22;6085;49.452;8.502;2023-01-29T11:52:04;3.60;99.90
12049;DHT22;6085;49.452;8.502;2023-01-29T11:56:20;4.40;99.90
12049;DHT22;6085;49.452;8.502;2023-01-29T12:00:25;4.60;99.90
12049;DHT22;6085;49.452;8.502;2023-01-29T12:04:29;4.60;99.90
12049;DHT22;6085;49.452;8.502;2023-01-29T12:08:34;5.40;99.90
12049;DHT22;6085;49.452;8.502;2023-01-29T12:12:40;6.10;99.90
12049;DHT22;6085;49.452;8.502;2023-01-29T12:16:46;6.30;99.90
12049;DHT22;6085;49.452;8.502;2023-01-29T12:20:57;6.20;99.90
12049;DHT22;6085;49.452;8.502;2023-01-29T12:25:05;5.80;99.90
12049;DHT22;6085;49.452;8.502;2023-01-29T12:29:24;5.60;99.90
12049;DHT22;6085;49.452;8.502;2023-01-29T12:33:35;5.50;99.90
12049;DHT22;6085;49.452;8.502;2023-01-29T12:37:47;5.10;99.90
12049;DHT22;6085;49.452;8.502;2023-01-29T12:41:54;5.00;99.90
12049;DHT22;6085;49.452;8.502;2023-01-29T12:46:00;5.10;99.90
12049;DHT22;6085;49.452;8.502;2023-01-29T12:50:06;5.40;99.90
12049;DHT22;6085;49.452;8.502;2023-01-29T12:54:13;5.50;99.90
12049;DHT22;6085;49.452;8.502;2023-01-29T12:58:21;5.50;99.90
12049;DHT22;6085;49.452;8.502;2023-01-29T13:02:31;5.40;99.90
12049;DHT22;6085;49.452;8.502;2023-01-29T13:06:35;5.20;99.90
12049;DHT22;6085;49.452;8.502;2023-01-29T13:10:44;4.80;99.90
12049;DHT22;6085;49.452;8.502;2023-01-29T13:14:51;4.90;99.90
12049;DHT22;6085;49.452;8.502;2023-01-29T13:18:56;5.30;99.90
12049;DHT22;6085;49.452;8.502;2023-01-29T13:23:05;5.30;99.90
12049;DHT22;6085;49.452;8.502;2023-01-29T13:27:20;4.80;99.90
12049;DHT22;6085;49.452;8.502;2023-01-29T13:31:27;4.50;99.90
12049;DHT22;6085;49.452;8.502;2023-01-29T13:35:31;5.00;99.90
12049;DHT22;6085;49.452;8.502;2023-01-29T13:39:35;5.80;99.90
12049;DHT22;6085;49.452;8.502;2023-01-29T13:43:48;6.50;99.90
12049;DHT22;6085;49.452;8.502;2023-01-29T13:47:51;6.80;99.90
12049;DHT22;6085;49.452;8.502;2023-01-29T13:51:53;7.20;99.90
12049;DHT22;6085;49.452;8.502;2023-01-29T13:56:34;7.60;99.90
12049;DHT22;6085;49.452;8.502;2023-01-29T14:00:51;7.40;99.90
12049;DHT22;6085;49.452;8.502;2023-01-29T14:10:00;5.80;99.90
12049;DHT22;6085;49.452;8.502;2023-01-29T14:18:46;5.00;99.90
12049;DHT22;6085;49.452;8.502;2023-01-29T14:22:54;4.60;99.90
12049;DHT22;6085;49.452;8.502;2023-01-29T14:26:56;4.20;99.90
12049;DHT22;6085;49.452;8.502;2023-01-29T14:31:00;3.90;99.90
12049;DHT22;6085;49.452;8.502;2023-01-29T14:35:09;4.30;99.90
12049;DHT22;6085;49.452;8.502;2023-01-29T14:39:20;4.80;99.90
12049;DHT22;6085;49.452;8.502;2023-01-29T14:43:23;5.30;99.90
12049;DHT22;6085;49.452;8.502;2023-01-29T14:48:00;5.40;99.90
12049;DHT22;6085;49.452;8.502;2023-01-29T14:52:03;5.70;99.90
12049;DHT22;6085;49.452;8.502;2023-01-29T14:56:11;6.00;99.90
12049;DHT22;6085;49.452;8.502;2023-01-29T15:00:21;6.40;99.90
12049;DHT22;6085;49.452;8.502;2023-01-29T15:04:28;6.30;99.90
12049;DHT22;6085;49.452;8.502;2023-01-29T15:08:35;5.60;99.90
12049;DHT22;6085;49.452;8.502;2023-01-29T15:12:45;5.20;99.90
12049;DHT22;6085;49.452;8.502;2023-01-29T15:16:59;4.30;99.90
12049;DHT22;6085;49.452;8.502;2023-01-29T15:21:10;4.10;99.90
12049;DHT22;6085;49.452;8.502;2023-01-29T15:25:13;3.80;99.90
12049;DHT22;6085;49.452;8.502;2023-01-29T15:29:22;3.00;99.90
12049;DHT22;6085;49.452;8.502;2023-01-29T15:33:25;2.40;99.90
12049;DHT22;6085;49.452;8.502;2023-01-29T15:37:31;2.00;99.90
12049;DHT22;6085;49.452;8.502;2023-01-29T15:41:33;1.70;99.90
12049;DHT22;6085;49.452;8.502;2023-01-29T15:45:39;1.50;99.90
12049;DHT22;6085;49.452;8.502;2023-01-29T15:49:41;1.30;99.90
12049;DHT22;6085;49.452;8.502;2023-01-29T15:53:49;1.00;99.90
12049;DHT22;6085;49.452;8.502;2023-01-29T15:57:52;0.90;99.90
12049;DHT22;6085;49.452;8.502;2023-01-29T16:01:54;0.70;99.90
12049;DHT22;6085;49.452;8.502;2023-01-29T16:05:57;0.40;99.90
12049;DHT22;6085;49.452;8.502;2023-01-29T16:10:00;0.20;99.90
12049;DHT22;6085;49.452;8.502;2023-01-29T16:14:04;-0.10;99.90
12049;DHT22;6085;49.452;8.502;2023-01-29T16:18:20;-0.30;99.90
12049;DHT22;6085;49.452;8.502;2023-01-29T16:22:22;-0.30;99.90
12049;DHT22;6085;49.452;8.502;2023-01-29T16:26:28;-0.40;99.90
12049;DHT22;6085;49.452;8.502;2023-01-29T16:30:32;-0.50;99.90
12049;DHT22;6085;49.452;8.502;2023-01-29T16:34:36;-0.50;99.90
12049;DHT22;6085;49.452;8.502;2023-01-29T16:38:38;-0.60;99.90
12049;DHT22;6085;49.452;8.502;2023-01-29T16:42:45;-0.70;99.90
12049;DHT22;6085;49.452;8.502;2023-01-29T16:46:47;-0.70;99.90
12049;DHT22;6085;49.452;8.502;2023-01-29T16:50:50;-0.70;99.90
12049;DHT22;6085;49.452;8.502;2023-01-29T16:55:20;-0.70;99.90
12049;DHT22;6085;49.452;8.502;2023-01-29T16:59:29;-0.60;99.90
12049;DHT22;6085;49.452;8.502;2023-01-29T17:03:33;-0.50;99.90
12049;DHT22;6085;49.452;8.502;2023-01-29T17:07:36;-0.50;99.90
12049;DHT22;6085;49.452;8.502;2023-01-29T17:11:39;-0.40;99.90
12049;DHT22;6085;49.452;8.502;2023-01-29T17:15:45;-0.50;99.90
12049;DHT22;6085;49.452;8.502;2023-01-29T17:19:47;-0.60;99.90
12049;DHT22;6085;49.452;8.502;2023-01-29T17:23:48;-0.60;99.90
12049;DHT22;6085;49.452;8.502;2023-01-29T17:27:50;-0.70;99.90
12049;DHT22;6085;49.452;8.502;2023-01-29T17:31:54;-0.80;99.90
12049;DHT22;6085;49.452;8.502;2023-01-29T17:35:55;-0.90;99.90
12049;DHT22;6085;49.452;8.502;2023-01-29T17:39:57;-1.00;99.90
12049;DHT22;6085;49.452;8.502;2023-01-29T17:44:00;-1.00;99.90
12049;DHT22;6085;49.452;8.502;2023-01-29T17:48:04;-1.10;99.90
12049;DHT22;6085;49.452;8.502;2023-01-29T17:52:06;-1.20;99.90
12049;DHT22;6085;49.452;8.502;2023-01-29T17:56:13;-1.20;99.90
12049;DHT22;6085;49.452;8.502;2023-01-29T18:00:17;-1.30;99.90
12049;DHT22;6085;49.452;8.502;2023-01-29T18:04:21;-1.40;99.90
12049;DHT22;6085;49.452;8.502;2023-01-29T18:08:27;-1.40;99.90
12049;DHT22;6085;49.452;8.502;2023-01-29T18:12:30;-1.40;99.90
12049;DHT22;6085;49.452;8.502;2023-01-29T18:16:32;-1.50;99.90
12049;DHT22;6085;49.452;8.502;2023-01-29T18:20:38;-1.60;99.90
12049;DHT22;6085;49.452;8.502;2023-01-29T18:24:40;-1.40;99.90
12049;DHT22;6085;49.452;8.502;2023-01-29T18:28:42;-1.40;99.90
12049;DHT22;6085;49.452;8.502;2023-01-29T18:32:43;-1.60;99.90
12049;DHT22;6085;49.452;8.502;2023-01-29T18:36:48;-1.80;99.90
12049;DHT22;6085;49.452;8.502;2023-01-29T18:40:50;-1.90;99.90
12049;DHT22;6085;49.452;8.502;2023-01-29T18:44:52;-2.00;99.90
12049;DHT22;6085;49.452;8.502;2023-01-29T18:48:53;-2.10;99.90
12049;DHT22;6085;49.452;8.502;2023-01-29T18:52:57;-2.10;99.90
12049;DHT22;6085;49.452;8.502;2023-01-29T18:56:58;-2.10;99.90
12049;DHT22;6085;49.452;8.502;2023-01-29T19:01:01;-2.20;99.90
12049;DHT22;6085;49.452;8.502;2023-01-29T19:05:06;-2.10;99.90
12049;DHT22;6085;49.452;8.502;2023-01-29T19:09:09;-2.20;99.90
12049;DHT22;6085;49.452;8.502;2023-01-29T19:13:12;-2.40;99.90
12049;DHT22;6085;49.452;8.502;2023-01-29T19:17:14;-2.50;99.90
12049;DHT22;6085;49.452;8.502;2023-01-29T19:21:17;-2.60;99.90
12049;DHT22;6085;49.452;8.502;2023-01-29T19:25:20;-2.80;99.90
12049;DHT22;6085;49.452;8.502;2023-01-29T19:29:23;-2.80;99.90
12049;DHT22;6085;49.452;8.502;2023-01-29T19:33:24;-2.80;99.90
12049;DHT22;6085;49.452;8.502;2023-01-29T19:37:27;-2.70;99.90
12049;DHT22;6085;49.452;8.502;2023-01-29T19:41:31;-2.70;99.90
12049;DHT22;6085;49.452;8.502;2023-01-29T19:45:34;-2.90;99.90
12049;DHT22;6085;49.452;8.502;2023-01-29T19:49:36;-3.00;99.90
12049;DHT22;6085;49.452;8.502;2023-01-29T19:53:41;-3.00;99.90
12049;DHT22;6085;49.452;8.502;2023-01-29T19:57:45;-2.80;99.90
12049;DHT22;6085;49.452;8.502;2023-01-29T20:01:47;-2.60;99.90
12049;DHT22;6085;49.452;8.502;2023-01-29T20:05:49;-2.60;99.90
12049;DHT22;6085;49.452;8.502;2023-01-29T20:09:51;-2.50;99.90
12049;DHT22;6085;49.452;8.502;2023-01-29T20:13:54;-2.50;99.90
12049;DHT22;6085;49.452;8.502;2023-01-29T20:17:56;-2.60;99.90
12049;DHT22;6085;49.452;8.502;2023-01-29T20:21:59;-2.50;99.90
12049;DHT22;6085;49.452;8.502;2023-01-29T20:26:01;-2.50;99.90
12049;DHT22;6085;49.452;8.502;2023-01-29T20:30:06;-2.40;99.90
12049;DHT22;6085;49.452;8.502;2023-01-29T20:34:08;-2.30;99.90
12049;DHT22;6085;49.452;8.502;2023-01-29T20:38:10;-2.20;99.90
12049;DHT22;6085;49.452;8.502;2023-01-29T20:42:12;-2.10;99.90
12049;DHT22;6085;49.452;8.502;2023-01-29T20:46:15;-1.90;99.90
12049;DHT22;6085;49.452;8.502;2023-01-29T20:50:17;-1.70;99.90
12049;DHT22;6085;49.452;8.502;2023-01-29T20:54:19;-1.70;99.90
12049;DHT22;6085;49.452;8.502;2023-01-29T20:58:21;-1.70;99.90
12049;DHT22;6085;49.452;8.502;2023-01-29T21:02:24;-1.80;99.90
12049;DHT22;6085;49.452;8.502;2023-01-29T21:06:26;-1.80;99.90
12049;DHT22;6085;49.452;8.502;2023-01-29T21:10:28;-1.70;99.90
12049;DHT22;6085;49.452;8.502;2023-01-29T21:14:30;-1.50;99.90
12049;DHT22;6085;49.452;8.502;2023-01-29T21:18:33;-1.30;99.90
12049;DHT22;6085;49.452;8.502;2023-01-29T21:22:35;-1.10;99.90
12049;DHT22;6085;49.452;8.502;2023-01-29T21:26:38;-1.00;99.90
12049;DHT22;6085;49.452;8.502;2023-01-29T21:30:40;-1.00;99.90
12049;DHT22;6085;49.452;8.502;2023-01-29T21:34:43;-1.10;99.90
12049;DHT22;6085;49.452;8.502;2023-01-29T21:38:45;-1.20;99.90
12049;DHT22;6085;49.452;8.502;2023-01-29T21:42:47;-1.20;99.90
12049;DHT22;6085;49.452;8.502;2023-01-29T21:47:06;-1.30;99.90
12049;DHT22;6085;49.452;8.502;2023-01-29T21:51:14;-1.40;99.90
12049;DHT22;6085;49.452;8.502;2023-01-29T21:55:15;-1.50;99.90
12049;DHT22;6085;49.452;8.502;2023-01-29T21:59:17;-1.60;99.90
12049;DHT22;6085;49.452;8.502;2023-01-29T22:03:19;-1.70;99.90
12049;DHT22;6085;49.452;8.502;2023-01-29T22:07:23;-1.60;99.90
12049;DHT22;6085;49.452;8.502;2023-01-29T22:11:25;-1.60;99.90
12049;DHT22;6085;49.452;8.502;2023-01-29T22:15:27;-1.60;99.90
12049;DHT22;6085;49.452;8.502;2023-01-29T22:19:29;-1.60;99.90
12049;DHT22;6085;49.452;8.502;2023-01-29T22:23:32;-1.60;99.90
12049;DHT22;6085;49.452;8.502;2023-01-29T22:27:33;-1.60;99.90
12049;DHT22;6085;49.452;8.502;2023-01-29T22:31:35;-1.60;99.90
12049;DHT22;6085;49.452;8.502;2023-01-29T22:35:39;-1.60;99.90
12049;DHT22;6085;49.452;8.502;2023-01-29T22:39:42;-1.40;99.90
12049;DHT22;6085;49.452;8.502;2023-01-29T22:43:44;-1.10;99.90
12049;DHT22;6085;49.452;8.502;2023-01-29T22:47:46;-0.70;99.90
12049;DHT22;6085;49.452;8.502;2023-01-29T22:51:47;-0.40;99.90
12049;DHT22;6085;49.452;8.502;2023-01-29T22:56:10;-0.30;99.90
12049;DHT22;6085;49.452;8.502;2023-01-29T23:00:13;-0.30;99.90
12049;DHT22;6085;49.452;8.502;2023-01-29T23:04:15;-0.30;99.90
12049;DHT22;6085;49.452;8.502;2023-01-29T23:08:17;-0.30;99.90
12049;DHT22;6085;49.452;8.502;2023-01-29T23:12:20;-0.20;99.90
12049;DHT22;6085;49.452;8.502;2023-01-29T23:16:23;-0.10;99.90
12049;DHT22;6085;49.452;8.502;2023-01-29T23:20:25;0.00;99.90
12049;DHT22;6085;49.452;8.502;2023-01-29T23:24:26;0.00;99.90
12049;DHT22;6085;49.452;8.502;2023-01-29T23:28:30;0.10;99.90
12049;DHT22;6085;49.452;8.502;2023-01-29T23:32:32;0.10;99.90
12049;DHT22;6085;49.452;8.502;2023-01-29T23:36:34;0.20;99.90
12049;DHT22;6085;49.452;8.502;2023-01-29T23:40:36;0.20;99.90
12049;DHT22;6085;49.452;8.502;2023-01-29T23:44:39;0.20;99.90
12049;DHT22;6085;49.452;8.502;2023-01-29T23:48:41;0.20;99.90
12049;DHT22;6085;49.452;8.502;2023-01-29T23:52:43;0.30;99.90
12049;DHT22;6085;49.452;8.502;2023-01-29T23:56:45;0.30;99.90
